createdAt,value
2018-11-07T00:00:48.792Z,76707.73
2018-11-07T00:03:16.704Z,76710.73
2018-11-07T00:05:44.315Z,76710.73
2018-11-07T00:08:12.241Z,76712.73
2018-11-07T00:10:39.996Z,76712.73
2018-11-07T00:13:07.684Z,76710.73
2018-11-07T00:15:34.584Z,76710.73
2018-11-07T00:18:01.444Z,76706.73
2018-11-07T00:20:28.308Z,76698.72
2018-11-07T00:22:55.152Z,76702.72
2018-11-07T00:25:21.988Z,76701.72
2018-11-07T00:27:48.840Z,76708.73
2018-11-07T00:30:15.727Z,76710.73
2018-11-07T00:32:44.337Z,76712.73
2018-11-07T00:35:11.826Z,76717.73
2018-11-07T00:37:39.688Z,76717.73
2018-11-07T00:40:06.550Z,76719.73
2018-11-07T00:42:34.292Z,76727.74
2018-11-07T00:45:02.143Z,76723.73
2018-11-07T00:47:30.007Z,76724.73
2018-11-07T00:49:57.831Z,76730.74
2018-11-07T00:52:25.534Z,76731.74
2018-11-07T00:54:53.355Z,76732.75
2018-11-07T00:57:21.142Z,76725.73
2018-11-07T00:59:48.834Z,76725.73
2018-11-07T01:02:16.503Z,76723.73
2018-11-07T01:04:45.188Z,76724.73
2018-11-07T01:07:12.065Z,76716.73
2018-11-07T01:09:39.970Z,76720.73
2018-11-07T01:12:07.663Z,76730.74
2018-11-07T01:14:35.577Z,76727.74
2018-11-07T01:17:02.434Z,76728.74
2018-11-07T01:19:30.306Z,76727.74
2018-11-07T01:21:58.073Z,76730.74
2018-11-07T01:24:25.723Z,76728.74
2018-11-07T01:26:53.414Z,76725.73
2018-11-07T01:29:21.176Z,76722.73
2018-11-07T01:31:48.919Z,76734.75
2018-11-07T01:34:16.863Z,76731.74
2018-11-07T01:36:45.847Z,76728.74
2018-11-07T01:39:13.890Z,76731.74
2018-11-07T01:41:41.659Z,76725.73
2018-11-07T01:44:09.121Z,76722.73
2018-11-07T01:46:36.943Z,76718.73
2018-11-07T01:49:04.676Z,76712.73
2018-11-07T01:51:31.549Z,76708.73
2018-11-07T01:53:59.245Z,76706.73
2018-11-07T01:56:26.084Z,76705.72
2018-11-07T01:58:53.734Z,76704.72
2018-11-07T02:01:20.594Z,76696.72
2018-11-07T02:03:48.417Z,76694.72
2018-11-07T02:06:16.260Z,76692.71
2018-11-07T02:08:44.215Z,76691.71
2018-11-07T02:11:11.085Z,76690.71
2018-11-07T02:13:38.761Z,76688.71
2018-11-07T02:16:06.400Z,76686.70
2018-11-07T02:18:34.085Z,76688.71
2018-11-07T02:21:01.814Z,76682.70
2018-11-07T02:23:29.723Z,76685.70
2018-11-07T02:25:57.562Z,76687.70
2018-11-07T02:28:25.422Z,76689.71
2018-11-07T02:30:53.230Z,76689.71
2018-11-07T02:33:21.132Z,76690.71
2018-11-07T02:35:48.897Z,76696.72
2018-11-07T02:38:16.739Z,76694.72
2018-11-07T02:40:45.704Z,76694.72
2018-11-07T02:43:14.060Z,76686.70
2018-11-07T02:45:40.910Z,76685.70
2018-11-07T02:48:08.732Z,76678.70
2018-11-07T02:50:35.590Z,76685.70
2018-11-07T02:53:03.508Z,76686.70
2018-11-07T02:55:31.306Z,76680.70
2018-11-07T02:57:58.139Z,76688.71
2018-11-07T03:00:24.990Z,76690.71
2018-11-07T03:02:52.874Z,76688.71
2018-11-07T03:05:20.674Z,76695.72
2018-11-07T03:07:48.363Z,76691.71
2018-11-07T03:10:16.219Z,76687.70
2018-11-07T03:12:44.038Z,76681.70
2018-11-07T03:15:10.903Z,76684.70
2018-11-07T03:17:37.856Z,76683.70
2018-11-07T03:20:05.634Z,76684.70
2018-11-07T03:22:33.312Z,76684.70
2018-11-07T03:25:00.998Z,76688.71
2018-11-07T03:27:27.861Z,76690.71
2018-11-07T03:29:54.720Z,76692.71
2018-11-07T03:32:21.534Z,76694.72
2018-11-07T03:34:48.436Z,76692.71
2018-11-07T03:37:15.293Z,76691.71
2018-11-07T03:39:42.204Z,76694.72
2018-11-07T03:42:09.025Z,76692.71
2018-11-07T03:44:35.854Z,76690.71
2018-11-07T03:47:02.751Z,76692.71
2018-11-07T03:49:29.578Z,76697.72
2018-11-07T03:51:56.382Z,76701.72
2018-11-07T03:54:23.220Z,76698.72
2018-11-07T03:56:50.117Z,76700.72
2018-11-07T03:59:16.975Z,76696.72
2018-11-07T04:01:44.169Z,76697.72
2018-11-07T04:04:11.854Z,76697.72
2018-11-07T04:06:39.444Z,76702.72
2018-11-07T04:09:07.593Z,76702.72
2018-11-07T04:11:34.486Z,76704.72
2018-11-07T04:14:02.345Z,76704.72
2018-11-07T04:16:29.263Z,76704.72
2018-11-07T04:18:56.120Z,76702.72
2018-11-07T04:21:23.082Z,76706.73
2018-11-07T04:23:55.056Z,76704.72
2018-11-07T04:26:22.917Z,76702.72
2018-11-07T04:28:50.799Z,76705.72
2018-11-07T04:31:18.568Z,76713.73
2018-11-07T04:33:46.279Z,76719.73
2018-11-07T04:36:14.639Z,76714.73
2018-11-07T04:38:42.419Z,76716.73
2018-11-07T04:41:10.283Z,76712.73
2018-11-07T04:43:38.173Z,76706.73
2018-11-07T04:46:06.240Z,76703.72
2018-11-07T04:48:33.920Z,76709.73
2018-11-07T04:51:01.769Z,76711.73
2018-11-07T04:53:29.459Z,76710.73
2018-11-07T04:55:57.134Z,76712.73
2018-11-07T04:58:24.833Z,76720.73
2018-11-07T05:00:52.755Z,76718.73
2018-11-07T05:03:19.969Z,76716.73
2018-11-07T05:05:47.690Z,76710.73
2018-11-07T05:08:14.726Z,76713.73
2018-11-07T05:10:41.594Z,76717.73
2018-11-07T05:13:09.347Z,76721.73
2018-11-07T05:15:37.099Z,76726.73
2018-11-07T05:18:05.020Z,76732.75
2018-11-07T05:20:32.872Z,76730.74
2018-11-07T05:22:59.741Z,76730.74
2018-11-07T05:25:27.592Z,76730.74
2018-11-07T05:27:55.374Z,76731.74
2018-11-07T05:30:23.210Z,76731.74
2018-11-07T05:32:50.098Z,76732.75
2018-11-07T05:35:17.771Z,76733.75
2018-11-07T05:37:45.679Z,76742.75
2018-11-07T05:40:12.485Z,76750.76
2018-11-07T05:42:40.327Z,76749.76
2018-11-07T05:45:07.167Z,76748.76
2018-11-07T05:47:34.974Z,76754.77
2018-11-07T05:50:02.676Z,76758.77
2018-11-07T05:52:30.484Z,76752.76
2018-11-07T05:54:58.118Z,76758.77
2018-11-07T05:57:25.848Z,76758.77
2018-11-07T05:59:53.691Z,76758.77
2018-11-07T06:02:21.398Z,76765.77
2018-11-07T06:04:49.118Z,76764.77
2018-11-07T06:07:16.897Z,76763.77
2018-11-07T06:09:44.305Z,76759.77
2018-11-07T06:12:12.122Z,76758.77
2018-11-07T06:14:39.935Z,76750.76
2018-11-07T06:17:07.733Z,76753.77
2018-11-07T06:19:35.554Z,76755.77
2018-11-07T06:22:02.402Z,76752.76
2018-11-07T06:24:29.331Z,76758.77
2018-11-07T06:26:56.149Z,76758.77
2018-11-07T06:29:22.966Z,76760.77
2018-11-07T06:31:50.668Z,76764.77
2018-11-07T06:34:18.432Z,76766.77
2018-11-07T06:36:46.090Z,76768.77
2018-11-07T06:39:14.503Z,76767.77
2018-11-07T06:41:41.464Z,76771.77
2018-11-07T06:44:08.729Z,76771.77
2018-11-07T06:46:35.566Z,76779.78
2018-11-07T06:49:02.429Z,76774.78
2018-11-07T06:51:29.282Z,76776.78
2018-11-07T06:53:56.135Z,76778.78
2018-11-07T06:56:23.019Z,76783.78
2018-11-07T06:58:49.844Z,76784.78
2018-11-07T07:01:16.673Z,76785.78
2018-11-07T07:03:43.948Z,76778.78
2018-11-07T07:06:11.593Z,76780.78
2018-11-07T07:08:38.398Z,76782.78
2018-11-07T07:11:06.293Z,76786.78
2018-11-07T07:13:34.538Z,76785.78
2018-11-07T07:16:02.369Z,76784.78
2018-11-07T07:18:30.237Z,76785.78
2018-11-07T07:20:57.115Z,76784.78
2018-11-07T07:23:24.797Z,76790.79
2018-11-07T07:25:51.682Z,76786.78
2018-11-07T07:28:19.455Z,76791.79
2018-11-07T07:30:46.316Z,76795.80
2018-11-07T07:33:14.869Z,76798.80
2018-11-07T07:35:42.536Z,76799.80
2018-11-07T07:38:10.356Z,76794.79
2018-11-07T07:40:38.107Z,76791.79
2018-11-07T07:43:05.925Z,76792.79
2018-11-07T07:45:33.705Z,76794.79
2018-11-07T07:48:01.597Z,76796.80
2018-11-07T07:50:29.392Z,76790.79
2018-11-07T07:52:57.186Z,76794.79
2018-11-07T07:55:24.041Z,76798.80
2018-11-07T07:57:51.891Z,76799.80
2018-11-07T08:00:20.604Z,76798.80
2018-11-07T08:02:48.598Z,76800.80
2018-11-07T08:05:16.483Z,76801.80
2018-11-07T08:07:44.291Z,76796.80
2018-11-07T08:10:19.222Z,76801.80
2018-11-07T08:12:46.556Z,76799.80
2018-11-07T08:15:14.211Z,76797.80
2018-11-07T08:17:44.061Z,76801.80
2018-11-07T08:20:12.760Z,76799.80
2018-11-07T08:22:39.879Z,76793.79
2018-11-07T08:25:06.785Z,76793.79
2018-11-07T08:27:33.718Z,76788.78
2018-11-07T08:30:01.557Z,76788.78
2018-11-07T08:32:28.445Z,76784.78
2018-11-07T08:34:56.322Z,76790.79
2018-11-07T08:37:23.170Z,76790.79
2018-11-07T08:39:51.062Z,76790.79
2018-11-07T08:42:19.122Z,76793.79
2018-11-07T08:44:46.929Z,76792.79
2018-11-07T08:47:15.875Z,76795.80
2018-11-07T08:49:42.728Z,76794.79
2018-11-07T08:52:09.606Z,76796.80
2018-11-07T08:54:37.419Z,76800.80
2018-11-07T08:57:05.339Z,76796.80
2018-11-07T08:59:33.107Z,76802.80
2018-11-07T09:02:00.880Z,76802.80
2018-11-07T09:04:28.750Z,76806.80
2018-11-07T09:06:56.148Z,76808.80
2018-11-07T09:09:23.877Z,76808.80
2018-11-07T09:11:51.702Z,76809.80
2018-11-07T09:14:19.435Z,76809.80
2018-11-07T09:16:46.276Z,76812.81
2018-11-07T09:19:14.673Z,76812.81
2018-11-07T09:21:41.525Z,76812.81
2018-11-07T09:24:09.191Z,76809.80
2018-11-07T09:26:44.608Z,76804.80
2018-11-07T09:29:12.446Z,76799.80
2018-11-07T09:31:39.306Z,76792.79
2018-11-07T09:34:06.141Z,76791.79
2018-11-07T09:36:32.995Z,76794.79
2018-11-07T09:39:00.774Z,76797.80
2018-11-07T09:41:28.598Z,76796.80
2018-11-07T09:43:56.288Z,76804.80
2018-11-07T09:46:23.113Z,76801.80
2018-11-07T09:48:50.859Z,76804.80
2018-11-07T09:51:18.632Z,76801.80
2018-11-07T09:53:46.321Z,76800.80
2018-11-07T09:56:15.264Z,76800.80
2018-11-07T09:58:43.657Z,76794.79
2018-11-07T10:01:11.386Z,76801.80
2018-11-07T10:03:39.209Z,76805.80
2018-11-07T10:06:06.050Z,76808.80
2018-11-07T10:08:32.912Z,76806.80
2018-11-07T10:10:59.769Z,76804.80
2018-11-07T10:13:26.623Z,76802.80
2018-11-07T10:15:53.460Z,76802.80
2018-11-07T10:18:20.313Z,76805.80
2018-11-07T10:20:47.174Z,76805.80
2018-11-07T10:23:14.918Z,76802.80
2018-11-07T10:25:42.703Z,76805.80
2018-11-07T10:28:09.984Z,76804.80
2018-11-07T10:30:36.426Z,76802.80
2018-11-07T10:33:03.292Z,76804.80
2018-11-07T10:35:30.194Z,76804.80
2018-11-07T10:37:57.106Z,76804.80
2018-11-07T10:40:24.615Z,76806.80
2018-11-07T10:42:51.440Z,76805.80
2018-11-07T10:45:18.267Z,76804.80
2018-11-07T10:47:46.123Z,76803.80
2018-11-07T10:50:15.124Z,76806.80
2018-11-07T10:52:42.784Z,76806.80
2018-11-07T10:55:10.492Z,76806.80
2018-11-07T10:57:38.172Z,76800.80
2018-11-07T11:00:07.169Z,76794.79
2018-11-07T11:02:40.166Z,76795.80
2018-11-07T11:05:07.843Z,76797.80
2018-11-07T11:07:35.554Z,76790.79
2018-11-07T11:10:03.549Z,76783.78
2018-11-07T11:12:30.472Z,76785.78
2018-11-07T11:14:58.162Z,76786.78
2018-11-07T11:17:25.075Z,76790.79
2018-11-07T11:19:52.865Z,76789.78
2018-11-07T11:22:19.724Z,76792.79
2018-11-07T11:24:47.466Z,76787.78
2018-11-07T11:27:15.125Z,76789.78
2018-11-07T11:29:41.978Z,76793.79
2018-11-07T11:32:09.781Z,76791.79
2018-11-07T11:34:44.318Z,76786.78
2018-11-07T11:37:12.181Z,76786.78
2018-11-07T11:39:40.012Z,76790.79
2018-11-07T11:42:07.832Z,76792.79
2018-11-07T11:44:35.563Z,76793.79
2018-11-07T11:47:02.452Z,76797.80
2018-11-07T11:49:30.261Z,76796.80
2018-11-07T11:51:58.177Z,76790.79
2018-11-07T11:54:25.820Z,76792.79
2018-11-07T11:56:53.679Z,76796.80
2018-11-07T11:59:21.765Z,76796.80
2018-11-07T12:01:48.619Z,76789.78
2018-11-07T12:04:15.476Z,76791.79
2018-11-07T12:06:42.316Z,76800.80
2018-11-07T12:09:09.942Z,76796.80
2018-11-07T12:11:37.593Z,76798.80
2018-11-07T12:14:05.358Z,76790.79
2018-11-07T12:16:33.023Z,76792.79
2018-11-07T12:18:59.921Z,76789.78
2018-11-07T12:21:26.816Z,76794.79
2018-11-07T12:23:54.500Z,76794.79
2018-11-07T12:26:22.253Z,76788.78
2018-11-07T12:28:49.931Z,76786.78
2018-11-07T12:31:17.636Z,76794.79
2018-11-07T12:33:45.350Z,76800.80
2018-11-07T12:36:14.064Z,76794.79
2018-11-07T12:38:40.922Z,76792.79
2018-11-07T12:41:08.714Z,76784.78
2018-11-07T12:43:36.477Z,76785.78
2018-11-07T12:46:04.399Z,76785.78
2018-11-07T12:48:32.309Z,76785.78
2018-11-07T12:51:00.093Z,76788.78
2018-11-07T12:53:27.769Z,76784.78
2018-11-07T12:55:54.607Z,76784.78
2018-11-07T12:58:22.738Z,76788.78
2018-11-07T13:00:50.311Z,76789.78
2018-11-07T13:03:18.154Z,76790.79
2018-11-07T13:05:45.794Z,76788.78
2018-11-07T13:08:14.209Z,76790.79
2018-11-07T13:10:42.024Z,76792.79
2018-11-07T13:13:08.863Z,76797.80
2018-11-07T13:15:35.699Z,76799.80
2018-11-07T13:18:02.560Z,76803.80
2018-11-07T13:20:29.404Z,76800.80
2018-11-07T13:22:56.254Z,76803.80
2018-11-07T13:25:23.687Z,76810.80
2018-11-07T13:27:50.530Z,76816.81
2018-11-07T13:30:19.416Z,76814.81
2018-11-07T13:32:46.261Z,76807.80
2018-11-07T13:35:14.307Z,76804.80
2018-11-07T13:37:42.045Z,76797.80
2018-11-07T13:40:10.324Z,76798.80
2018-11-07T13:42:37.151Z,76798.80
2018-11-07T13:45:05.905Z,76801.80
2018-11-07T13:47:32.769Z,76808.80
2018-11-07T13:50:00.462Z,76809.80
2018-11-07T13:52:28.270Z,76807.80
2018-11-07T13:54:55.148Z,76811.80
2018-11-07T13:57:22.781Z,76812.81
2018-11-07T13:59:50.644Z,76818.81
2018-11-07T14:02:18.097Z,76814.81
2018-11-07T14:04:45.039Z,76818.81
2018-11-07T14:07:12.783Z,76811.80
2018-11-07T14:09:40.593Z,76812.81
2018-11-07T14:12:08.359Z,76812.81
2018-11-07T14:14:36.180Z,76808.80
2018-11-07T14:17:03.967Z,76805.80
2018-11-07T14:19:31.671Z,76810.80
2018-11-07T14:21:59.436Z,76812.81
2018-11-07T14:24:27.079Z,76816.81
2018-11-07T14:26:54.953Z,76819.81
2018-11-07T14:29:22.755Z,76820.81
2018-11-07T14:31:52.028Z,76827.82
2018-11-07T14:34:21.361Z,76830.82
2018-11-07T14:36:49.097Z,76827.82
2018-11-07T14:39:17.000Z,76830.82
2018-11-07T14:41:45.873Z,76830.82
2018-11-07T14:44:14.251Z,76826.81
2018-11-07T14:46:42.168Z,76830.82
2018-11-07T14:49:09.914Z,76823.81
2018-11-07T14:51:37.749Z,76828.82
2018-11-07T14:54:05.583Z,76832.83
2018-11-07T14:56:32.427Z,76833.83
2018-11-07T14:59:00.193Z,76836.83
2018-11-07T15:01:28.240Z,76842.83
2018-11-07T15:03:56.109Z,76837.83
2018-11-07T15:06:23.886Z,76836.83
2018-11-07T15:08:51.694Z,76832.83
2018-11-07T15:11:19.475Z,76836.83
2018-11-07T15:13:46.370Z,76832.83
2018-11-07T15:16:14.745Z,76837.83
2018-11-07T15:18:42.499Z,76836.83
2018-11-07T15:21:10.377Z,76838.83
2018-11-07T15:23:38.113Z,76845.83
2018-11-07T15:26:05.051Z,76849.84
2018-11-07T15:28:32.766Z,76848.84
2018-11-07T15:30:59.628Z,76850.84
2018-11-07T15:33:26.472Z,76848.84
2018-11-07T15:35:53.433Z,76847.84
2018-11-07T15:38:21.061Z,76846.83
2018-11-07T15:40:47.929Z,76841.83
2018-11-07T15:43:15.214Z,76844.83
2018-11-07T15:45:42.055Z,76847.84
2018-11-07T15:48:08.926Z,76844.83
2018-11-07T15:50:41.431Z,76852.84
2018-11-07T15:53:08.275Z,76852.84
2018-11-07T15:55:35.914Z,76860.84
2018-11-07T15:58:02.739Z,76860.84
2018-11-07T16:00:29.580Z,76856.84
2018-11-07T16:02:56.439Z,76856.84
2018-11-07T16:05:23.289Z,76854.84
2018-11-07T16:07:50.134Z,76855.84
2018-11-07T16:10:17.006Z,76860.84
2018-11-07T16:12:44.081Z,76858.84
2018-11-07T16:15:12.867Z,76867.85
2018-11-07T16:17:40.512Z,76867.85
2018-11-07T16:20:11.287Z,76863.84
2018-11-07T16:22:38.409Z,76864.84
2018-11-07T16:25:06.205Z,76859.84
2018-11-07T16:27:33.051Z,76861.84
2018-11-07T16:29:59.962Z,76862.84
2018-11-07T16:32:26.806Z,76864.84
2018-11-07T16:34:53.703Z,76867.85
2018-11-07T16:37:20.577Z,76869.85
2018-11-07T16:39:47.451Z,76865.84
2018-11-07T16:42:15.239Z,76867.85
2018-11-07T16:44:43.994Z,76870.85
2018-11-07T16:47:10.898Z,76875.86
2018-11-07T16:49:38.701Z,76877.86
2018-11-07T16:52:05.617Z,76881.86
2018-11-07T16:54:32.477Z,76885.86
2018-11-07T16:56:59.370Z,76886.86
2018-11-07T16:59:27.152Z,76889.87
2018-11-07T17:01:54.528Z,76885.86
2018-11-07T17:04:21.417Z,76892.88
2018-11-07T17:06:48.289Z,76891.87
2018-11-07T17:09:15.977Z,76896.88
2018-11-07T17:11:44.610Z,76901.88
2018-11-07T17:14:12.411Z,76903.88
2018-11-07T17:16:40.067Z,76901.88
2018-11-07T17:19:06.929Z,76900.88
2018-11-07T17:21:33.819Z,76902.88
2018-11-07T17:24:01.576Z,76897.88
2018-11-07T17:26:28.662Z,76906.88
2018-11-07T17:28:56.511Z,76903.88
2018-11-07T17:31:23.441Z,76905.88
2018-11-07T17:33:51.213Z,76907.88
2018-11-07T17:36:19.033Z,76908.89
2018-11-07T17:38:46.049Z,76912.89
2018-11-07T17:41:13.658Z,76916.89
2018-11-07T17:46:31.954Z,76916.89
2018-11-07T17:48:58.855Z,76913.89
2018-11-07T17:51:26.297Z,76908.89
2018-11-07T17:53:53.459Z,76912.89
2018-11-07T17:56:21.481Z,76906.88
2018-11-07T17:58:49.362Z,76908.89
2018-11-07T18:01:16.259Z,76913.89
2018-11-07T18:03:44.388Z,76919.89
2018-11-07T18:06:11.265Z,76923.90
2018-11-07T18:08:38.534Z,76921.89
2018-11-07T18:11:05.393Z,76921.89
2018-11-07T18:13:32.469Z,76926.90
2018-11-07T18:16:00.237Z,76924.90
2018-11-07T18:18:28.040Z,76922.89
2018-11-07T18:20:55.909Z,76926.90
2018-11-07T18:23:22.778Z,76929.91
2018-11-07T18:25:58.879Z,76923.90
2018-11-07T18:28:25.780Z,76925.90
2018-11-07T18:30:52.638Z,76922.89
2018-11-07T18:33:20.307Z,76920.89
2018-11-07T18:35:48.161Z,76922.89
2018-11-07T18:38:15.887Z,76926.90
2018-11-07T18:40:42.730Z,76932.91
2018-11-07T18:43:10.509Z,76930.91
2018-11-07T18:45:37.316Z,76930.91
2018-11-07T18:48:05.147Z,76926.90
2018-11-07T18:50:32.878Z,76930.91
2018-11-07T18:53:00.678Z,76930.91
2018-11-07T18:55:28.547Z,76936.91
2018-11-07T18:57:55.383Z,76935.91
2018-11-07T19:00:22.207Z,76936.91
2018-11-07T19:02:49.706Z,76939.91
2018-11-07T19:05:16.687Z,76940.91
2018-11-07T19:07:44.515Z,76940.91
2018-11-07T19:10:14.158Z,76938.91
2018-11-07T19:12:41.063Z,76941.91
2018-11-07T19:15:09.046Z,76943.91
2018-11-07T19:17:36.942Z,76950.92
2018-11-07T19:20:05.212Z,76949.92
2018-11-07T19:22:33.112Z,76949.92
2018-11-07T19:25:00.951Z,76948.92
2018-11-07T19:27:27.788Z,76951.92
2018-11-07T19:29:54.633Z,76956.92
2018-11-07T19:32:21.501Z,76956.92
2018-11-07T19:34:49.237Z,76954.92
2018-11-07T19:37:17.050Z,76957.92
2018-11-07T19:39:45.864Z,76959.92
2018-11-07T19:42:12.702Z,76956.92
2018-11-07T19:44:39.474Z,76957.92
2018-11-07T19:47:07.207Z,76960.92
2018-11-07T19:49:34.006Z,76956.92
2018-11-07T19:52:00.843Z,76959.92
2018-11-07T19:54:27.734Z,76967.94
2018-11-07T19:56:54.637Z,76968.94
2018-11-07T19:59:21.500Z,76971.94
2018-11-07T20:01:48.329Z,76977.94
2018-11-07T20:04:15.236Z,76978.94
2018-11-07T20:06:42.101Z,76983.95
2018-11-07T20:09:09.543Z,76984.95
2018-11-07T20:11:36.372Z,76984.95
2018-11-07T20:14:04.561Z,76982.95
2018-11-07T20:16:31.405Z,76982.95
2018-11-07T20:18:58.269Z,76986.95
2018-11-07T20:21:25.119Z,76990.95
2018-11-07T20:23:51.926Z,76990.95
2018-11-07T20:26:18.775Z,77087.03
2018-11-07T20:28:45.667Z,77072.02
2018-11-07T20:31:12.464Z,77043.00
2018-11-07T20:33:40.187Z,77023.98
2018-11-07T20:36:08.020Z,77018.98
2018-11-07T20:38:35.818Z,77024.98
2018-11-07T20:41:03.608Z,77015.97
2018-11-07T20:43:31.566Z,77013.97
2018-11-07T20:45:58.442Z,77014.97
2018-11-07T20:48:25.467Z,77010.97
2018-11-07T20:50:52.368Z,77009.97
2018-11-07T20:53:20.197Z,77012.97
2018-11-07T20:55:47.977Z,77011.97
2018-11-07T20:58:14.894Z,77015.97
2018-11-07T21:00:42.741Z,77018.98
2018-11-07T21:03:09.569Z,77016.98
2018-11-07T21:05:37.285Z,77006.97
2018-11-07T21:08:04.095Z,77004.97
2018-11-07T21:10:30.947Z,77010.97
2018-11-07T21:12:57.757Z,77016.98
2018-11-07T21:15:24.656Z,77017.98
2018-11-07T21:17:51.628Z,77019.98
2018-11-07T21:20:18.581Z,77026.98
2018-11-07T21:22:45.443Z,77034.98
2018-11-07T21:25:13.917Z,77028.98
2018-11-07T21:27:40.823Z,77030.98
2018-11-07T21:30:08.516Z,77028.98
2018-11-07T21:32:35.768Z,77032.98
2018-11-07T21:35:02.754Z,77035.99
2018-11-07T21:37:29.525Z,77041.00
2018-11-07T21:39:56.494Z,77047.00
2018-11-07T21:42:23.343Z,77053.00
2018-11-07T21:44:50.174Z,77051.00
2018-11-07T21:47:17.214Z,77051.00
2018-11-07T21:49:45.021Z,77056.01
2018-11-07T21:52:12.782Z,77059.01
2018-11-07T21:54:39.680Z,77060.02
2018-11-07T21:57:06.502Z,77062.02
2018-11-07T21:59:33.391Z,77061.02
2018-11-07T22:02:00.189Z,77067.02
2018-11-07T22:04:27.070Z,77059.01
2018-11-07T22:06:54.026Z,77058.01
2018-11-07T22:09:20.914Z,77058.01
2018-11-07T22:11:47.759Z,77061.02
2018-11-07T22:14:15.700Z,77057.01
2018-11-07T22:16:42.478Z,77061.02
2018-11-07T22:19:09.317Z,77060.02
2018-11-07T22:21:36.169Z,77067.02
2018-11-07T22:24:03.181Z,77064.02
2018-11-07T22:26:29.974Z,77065.02
2018-11-07T22:28:56.963Z,77067.02
2018-11-07T22:31:23.800Z,77066.02
2018-11-07T22:33:51.455Z,77064.02
2018-11-07T22:36:19.271Z,77061.02
2018-11-07T22:38:46.095Z,77066.02
2018-11-07T22:41:13.600Z,77068.02
2018-11-07T22:43:40.411Z,77063.02
2018-11-07T22:46:08.106Z,77072.02
2018-11-07T22:48:34.956Z,77075.02
2018-11-07T22:51:01.837Z,77072.02
2018-11-07T22:53:28.679Z,77077.02
2018-11-07T22:55:56.380Z,77074.02
2018-11-07T22:58:23.216Z,77075.02
2018-11-07T23:00:56.828Z,77079.03
2018-11-07T23:03:23.601Z,77085.03
2018-11-07T23:05:50.672Z,77085.03
2018-11-07T23:08:18.363Z,77085.03
2018-11-07T23:10:46.248Z,77083.03
2018-11-07T23:13:14.165Z,77088.03
2018-11-07T23:15:46.608Z,77093.04
2018-11-07T23:18:13.901Z,77095.05
2018-11-07T23:20:40.738Z,77093.04
2018-11-07T23:23:07.611Z,77090.03
2018-11-07T23:25:34.477Z,77091.03
2018-11-07T23:28:02.295Z,77095.05
2018-11-07T23:30:29.145Z,77094.05
2018-11-07T23:32:56.006Z,77092.04
2018-11-07T23:35:22.847Z,77091.03
2018-11-07T23:37:50.640Z,77093.04
2018-11-07T23:40:17.486Z,77100.05
2018-11-07T23:42:44.994Z,77103.05
2018-11-07T23:45:12.645Z,77102.05
2018-11-07T23:47:39.583Z,77103.05
2018-11-07T23:50:06.595Z,77107.05
2018-11-07T23:52:39.956Z,77108.05
2018-11-07T23:55:07.592Z,77109.05
2018-11-07T23:57:35.419Z,77111.05
